createdAt,value
2022-09-26T00:01:22.255Z,100133.13
2022-09-26T00:03:51.431Z,100127.81
2022-09-26T00:06:19.489Z,100133.03
2022-09-26T00:08:47.477Z,100131.16
2022-09-26T00:11:23.847Z,100130.22
2022-09-26T00:13:56.131Z,100132.88
2022-09-26T00:16:23.798Z,100129.25
2022-09-26T00:18:52.820Z,100114.28
2022-09-26T00:21:20.455Z,100114.13
2022-09-26T00:23:47.394Z,100116.69
2022-09-26T00:26:15.447Z,100113.16
2022-09-26T00:28:42.762Z,100106.22
2022-09-26T00:31:12.116Z,100115.22
2022-09-26T00:33:39.186Z,100112.41
2022-09-26T00:36:07.044Z,100100.03
2022-09-26T00:38:34.437Z,100094.72
2022-09-26T00:41:02.056Z,100093.72
2022-09-26T00:43:42.306Z,100068.09
2022-09-26T00:46:36.958Z,100077.78
2022-09-26T00:49:13.457Z,100082.84
2022-09-26T00:51:43.408Z,100077.53
2022-09-26T00:54:12.738Z,100076.63
2022-09-26T00:56:42.513Z,100068.81
2022-09-26T00:59:15.814Z,100074.19
2022-09-26T01:01:42.826Z,100074.13
2022-09-26T01:04:12.423Z,100068.00
2022-09-26T01:06:39.660Z,100071.69
2022-09-26T01:09:09.056Z,100066.47
2022-09-26T01:11:37.459Z,100068.25
2022-09-26T01:14:05.818Z,100070.81
2022-09-26T01:16:34.248Z,100066.31
2022-09-26T01:19:03.385Z,100067.84
2022-09-26T01:21:44.930Z,100068.66
2022-09-26T01:25:08.700Z,100062.38
2022-09-26T01:28:04.203Z,100060.69
2022-09-26T01:30:58.132Z,100063.41
2022-09-26T01:33:57.546Z,100066.06
2022-09-26T01:36:42.522Z,100059.97
2022-09-26T01:39:53.623Z,100053.88
2022-09-26T01:42:28.944Z,100054.72
2022-09-26T01:45:11.407Z,100045.06
2022-09-26T01:47:46.619Z,100043.34
2022-09-26T01:50:18.259Z,100038.03
2022-09-26T01:52:55.375Z,100038.03
2022-09-26T01:55:28.226Z,100038.78
2022-09-26T01:58:27.897Z,100034.28
2022-09-26T02:00:59.290Z,100028.84
2022-09-26T02:03:30.497Z,100033.41
2022-09-26T02:06:09.248Z,100027.41
2022-09-26T02:08:42.054Z,100017.78
2022-09-26T02:11:19.131Z,100020.44
2022-09-26T02:14:04.384Z,100011.63
2022-09-26T02:16:50.998Z,100013.25
2022-09-26T02:19:26.330Z,100016.94
2022-09-26T02:21:53.937Z,100010.03
2022-09-26T02:24:22.288Z,100005.69
2022-09-26T02:26:50.811Z,100012.88
2022-09-26T02:29:17.449Z,100012.94
2022-09-26T02:31:54.023Z,100013.97
2022-09-26T02:34:20.736Z,100014.13
2022-09-26T02:36:47.536Z,100006.34
2022-09-26T02:39:14.203Z,100006.34
2022-09-26T02:41:57.966Z,99999.28
2022-09-26T02:44:37.058Z,99996.63
2022-09-26T02:47:09.775Z,99992.28
2022-09-26T02:50:04.718Z,99982.75
2022-09-26T02:52:39.936Z,99979.16
2022-09-26T02:55:12.193Z,99980.94
2022-09-26T02:58:09.153Z,99977.34
2022-09-26T03:00:38.470Z,99973.75
2022-09-26T03:03:21.593Z,99966.66
2022-09-26T03:05:51.674Z,99961.19
2022-09-26T03:08:23.509Z,99956.66
2022-09-26T03:10:51.474Z,99957.44
2022-09-26T03:13:20.317Z,99952.13
2022-09-26T03:15:52.146Z,99945.16
2022-09-26T03:18:26.295Z,99950.56
2022-09-26T03:20:54.262Z,99946.28
2022-09-26T03:23:23.501Z,99945.31
2022-09-26T03:26:11.368Z,99950.63
2022-09-26T03:28:38.292Z,99945.31
2022-09-26T03:31:05.827Z,99946.19
2022-09-26T03:33:32.448Z,99951.44
2022-09-26T03:36:00.179Z,99945.25
2022-09-26T03:38:27.444Z,99935.34
2022-09-26T03:40:54.419Z,99931.72
2022-09-26T03:43:24.380Z,99936.03
2022-09-26T03:45:51.672Z,99929.84
2022-09-26T03:48:18.354Z,99928.06
2022-09-26T03:50:44.942Z,99927.91
2022-09-26T03:53:11.669Z,99935.88
2022-09-26T03:55:38.487Z,99927.97
2022-09-26T03:58:05.272Z,99928.91
2022-09-26T04:00:31.946Z,99928.13
2022-09-26T04:03:03.115Z,99928.22
2022-09-26T04:05:29.881Z,99933.59
2022-09-26T04:07:56.466Z,99929.34
2022-09-26T04:10:26.187Z,99927.59
2022-09-26T04:12:52.824Z,99935.56
2022-09-26T04:15:19.441Z,99925.88
2022-09-26T04:17:46.430Z,99927.69
2022-09-26T04:20:13.089Z,99924.19
2022-09-26T04:22:40.115Z,99918.88
2022-09-26T04:25:07.194Z,99924.09
2022-09-26T04:27:33.812Z,99916.97
2022-09-26T04:30:00.413Z,99923.13
2022-09-26T04:32:27.013Z,99923.13
2022-09-26T04:34:53.587Z,99915.25
2022-09-26T04:37:21.149Z,99914.41
2022-09-26T04:39:48.445Z,99912.78
2022-09-26T04:42:15.102Z,99911.97
2022-09-26T04:44:41.773Z,99913.88
2022-09-26T04:47:08.395Z,99915.59
2022-09-26T04:49:34.985Z,99911.22
2022-09-26T04:52:01.824Z,99911.38
2022-09-26T04:54:28.412Z,99912.31
2022-09-26T04:56:55.030Z,99904.38
2022-09-26T04:59:21.659Z,99905.22
2022-09-26T05:01:48.318Z,99903.41
2022-09-26T05:04:14.971Z,99905.13
2022-09-26T05:06:41.559Z,99894.66
2022-09-26T05:09:08.438Z,99895.53
2022-09-26T05:11:35.150Z,99889.34
2022-09-26T05:14:03.566Z,99892.94
2022-09-26T05:16:30.600Z,99885.94
2022-09-26T05:18:57.345Z,99885.09
2022-09-26T05:21:24.016Z,99882.50
2022-09-26T05:24:09.259Z,99877.19
2022-09-26T05:26:42.098Z,99869.31
2022-09-26T05:29:09.545Z,99877.34
2022-09-26T05:31:40.067Z,99871.19
2022-09-26T05:34:12.202Z,99871.28
2022-09-26T05:36:43.150Z,99876.34
2022-09-26T05:39:30.024Z,99870.88
2022-09-26T05:41:58.327Z,99875.16
2022-09-26T05:44:27.548Z,99875.00
2022-09-26T05:46:57.488Z,99869.69
2022-09-26T05:49:25.185Z,99870.44
2022-09-26T05:51:53.801Z,99866.84
2022-09-26T05:54:24.190Z,99866.78
2022-09-26T05:56:50.898Z,99871.81
2022-09-26T05:59:17.479Z,99868.16
2022-09-26T06:01:44.298Z,99872.78
2022-09-26T06:04:11.012Z,99880.13
2022-09-26T06:06:37.735Z,99894.34
2022-09-26T06:09:07.238Z,99902.41
2022-09-26T06:11:34.108Z,99915.00
2022-09-26T06:14:03.375Z,99883.44
2022-09-26T06:16:30.194Z,99886.41
2022-09-26T06:18:57.070Z,99893.00
2022-09-26T06:21:26.175Z,99894.16
2022-09-26T06:23:52.868Z,99886.44
2022-09-26T06:26:24.803Z,99884.91
2022-09-26T06:29:00.503Z,99877.94
2022-09-26T06:31:28.295Z,99879.75
2022-09-26T06:33:55.366Z,99880.59
2022-09-26T06:36:23.863Z,99883.16
2022-09-26T06:38:51.477Z,99887.63
2022-09-26T06:41:18.621Z,99893.72
2022-09-26T06:43:46.041Z,99896.28
2022-09-26T06:46:15.007Z,99893.41
2022-09-26T06:48:42.172Z,99885.34
2022-09-26T06:51:09.459Z,99891.50
2022-09-26T06:53:36.120Z,99886.19
2022-09-26T06:56:10.838Z,99887.06
2022-09-26T06:58:38.187Z,99888.78
2022-09-26T07:01:09.566Z,99880.81
2022-09-26T07:03:39.441Z,99888.78
2022-09-26T07:06:09.168Z,99882.53
2022-09-26T07:09:00.980Z,99884.19
2022-09-26T07:11:38.078Z,99891.13
2022-09-26T07:14:17.810Z,99889.16
2022-09-26T07:16:52.203Z,99896.88
2022-09-26T07:19:21.547Z,99893.13
2022-09-26T07:21:49.472Z,99890.31
2022-09-26T07:24:16.171Z,99888.34
2022-09-26T07:26:42.961Z,99890.75
2022-09-26T07:29:12.204Z,99885.25
2022-09-26T07:31:39.105Z,99885.03
2022-09-26T07:34:08.474Z,99882.22
2022-09-26T07:36:35.296Z,99870.53
2022-09-26T07:39:04.098Z,99873.91
2022-09-26T07:41:31.199Z,99872.72
2022-09-26T07:47:06.694Z,99872.38
2022-09-26T07:49:51.643Z,99868.72
2022-09-26T07:52:22.629Z,99869.47
2022-09-26T07:54:51.902Z,99864.09
2022-09-26T07:57:19.451Z,99859.34
2022-09-26T07:59:50.548Z,99863.72
2022-09-26T08:02:25.774Z,99864.50
2022-09-26T08:05:00.335Z,99865.28
2022-09-26T08:07:27.760Z,99865.19
2022-09-26T08:09:54.329Z,99869.47
2022-09-26T08:12:24.555Z,99869.38
2022-09-26T08:14:52.968Z,99874.56
2022-09-26T08:17:20.679Z,99872.84
2022-09-26T08:19:48.793Z,99879.88
2022-09-26T08:22:15.399Z,99882.47
2022-09-26T08:24:44.314Z,99876.25
2022-09-26T08:27:10.903Z,99881.56
2022-09-26T08:29:40.079Z,99881.50
2022-09-26T08:32:06.708Z,99881.34
2022-09-26T08:34:35.296Z,99884.75
2022-09-26T08:37:01.968Z,99874.22
2022-09-26T08:39:33.115Z,99869.75
2022-09-26T08:42:09.125Z,99869.75
2022-09-26T08:44:58.303Z,99867.03
2022-09-26T08:47:48.437Z,99859.13
2022-09-26T08:51:12.189Z,99862.72
2022-09-26T08:53:52.616Z,99855.44
2022-09-26T08:56:27.399Z,99863.25
2022-09-26T08:58:56.164Z,99864.78
2022-09-26T09:01:29.260Z,99860.94
2022-09-26T09:04:05.385Z,99863.31
2022-09-26T09:06:32.912Z,99857.88
2022-09-26T09:08:59.694Z,99859.44
2022-09-26T09:11:41.814Z,99859.25
2022-09-26T09:14:08.375Z,99860.03
2022-09-26T09:16:58.718Z,99858.03
2022-09-26T09:20:04.374Z,99857.78
2022-09-26T09:23:13.011Z,99852.28
2022-09-26T09:25:51.862Z,99852.88
2022-09-26T09:28:27.746Z,99855.44
2022-09-26T09:30:57.705Z,99850.97
2022-09-26T09:33:29.261Z,99849.25
2022-09-26T09:36:03.784Z,99859.72
2022-09-26T09:38:33.590Z,99844.44
2022-09-26T09:41:09.306Z,99841.59
2022-09-26T09:43:47.562Z,99841.31
2022-09-26T09:46:23.756Z,99839.25
2022-09-26T09:48:58.081Z,99835.47
2022-09-26T09:51:39.476Z,99831.66
2022-09-26T09:54:09.351Z,99833.19
2022-09-26T09:56:52.068Z,99835.66
2022-09-26T09:59:18.663Z,99839.00
2022-09-26T10:01:50.046Z,99832.63
2022-09-26T10:04:36.788Z,99832.44
2022-09-26T10:07:05.362Z,99831.41
2022-09-26T10:09:40.819Z,99831.97
2022-09-26T10:12:14.371Z,99828.94
2022-09-26T10:15:02.358Z,99841.97
2022-09-26T10:17:29.612Z,99836.56
2022-09-26T10:19:56.321Z,99833.78
2022-09-26T10:22:26.505Z,99831.97
2022-09-26T10:25:00.774Z,99822.41
2022-09-26T10:27:38.319Z,99825.06
2022-09-26T10:30:25.841Z,99827.78
2022-09-26T10:32:59.125Z,99827.91
2022-09-26T10:35:40.642Z,99820.84
2022-09-26T10:38:27.436Z,99819.16
2022-09-26T10:41:03.633Z,99821.72
2022-09-26T10:43:38.130Z,99825.13
2022-09-26T10:46:17.109Z,99822.47
2022-09-26T10:48:47.899Z,99817.06
2022-09-26T10:51:21.140Z,99805.47
2022-09-26T10:53:53.762Z,99800.03
2022-09-26T10:56:28.292Z,99799.94
2022-09-26T10:58:59.705Z,99799.75
2022-09-26T11:01:31.394Z,99804.00
2022-09-26T11:04:13.214Z,99794.78
2022-09-26T11:06:48.128Z,99790.13
2022-09-26T11:09:20.529Z,99792.44
2022-09-26T11:11:50.580Z,99787.78
2022-09-26T11:14:29.218Z,99789.22
2022-09-26T11:16:56.666Z,99789.22
2022-09-26T11:19:53.841Z,99782.91
2022-09-26T11:22:38.379Z,99775.03
2022-09-26T11:25:20.317Z,99770.66
2022-09-26T11:27:53.643Z,99772.56
2022-09-26T11:30:22.014Z,99769.13
2022-09-26T11:32:51.638Z,99769.31
2022-09-26T11:35:33.477Z,99764.19
2022-09-26T11:38:38.398Z,99766.97
2022-09-26T11:41:38.905Z,99764.53
2022-09-26T11:44:23.878Z,99766.66
2022-09-26T11:47:30.312Z,99770.47
2022-09-26T11:50:37.899Z,99765.16
2022-09-26T11:53:42.703Z,99764.28
2022-09-26T11:56:40.106Z,99768.75
2022-09-26T11:59:49.687Z,99760.75
2022-09-26T12:02:34.496Z,99759.81
2022-09-26T12:05:13.985Z,99755.22
2022-09-26T12:08:01.495Z,99758.56
2022-09-26T12:10:46.110Z,99752.38
2022-09-26T12:13:29.886Z,99746.22
2022-09-26T12:16:14.541Z,99747.81
2022-09-26T12:18:59.677Z,99748.47
2022-09-26T12:22:06.424Z,99756.34
2022-09-26T12:24:51.596Z,99745.66
2022-09-26T12:27:39.404Z,99747.38
2022-09-26T12:30:11.661Z,99746.31
2022-09-26T12:32:52.348Z,99742.88
2022-09-26T12:35:43.881Z,99746.50
2022-09-26T12:38:16.962Z,99745.81
2022-09-26T12:41:14.390Z,99738.69
2022-09-26T12:44:22.750Z,99737.56
2022-09-26T12:47:12.357Z,99742.69
2022-09-26T12:49:47.910Z,99746.13
2022-09-26T12:52:43.164Z,99731.84
2022-09-26T12:55:28.175Z,99743.16
2022-09-26T12:58:21.934Z,99740.41
2022-09-26T13:01:23.866Z,99737.75
2022-09-26T13:04:09.135Z,99737.81
2022-09-26T13:07:07.649Z,99729.84
2022-09-26T13:10:00.998Z,99736.88
2022-09-26T13:12:46.580Z,99736.00
2022-09-26T13:15:35.423Z,99725.56
2022-09-26T13:18:15.127Z,99728.22
2022-09-26T13:20:51.902Z,99733.34
2022-09-26T13:23:34.998Z,99727.75
2022-09-26T13:26:14.575Z,99732.84
2022-09-26T13:29:06.290Z,99719.97
2022-09-26T13:31:43.260Z,99714.47
2022-09-26T13:34:32.132Z,99719.38
2022-09-26T13:36:59.713Z,99721.66
2022-09-26T13:39:38.622Z,99719.66
2022-09-26T13:42:15.272Z,99726.66
2022-09-26T13:45:12.231Z,99731.16
2022-09-26T13:47:46.416Z,99725.81
2022-09-26T13:50:27.443Z,99732.66
2022-09-26T13:53:12.951Z,99727.13
2022-09-26T13:55:40.056Z,99725.22
2022-09-26T13:58:20.082Z,99727.78
2022-09-26T14:00:53.374Z,99726.72
2022-09-26T14:03:20.213Z,99729.38
2022-09-26T14:05:52.178Z,99717.97
2022-09-26T14:08:43.108Z,99725.22
2022-09-26T14:11:19.000Z,99722.56
2022-09-26T14:13:47.702Z,99719.88
2022-09-26T14:16:35.834Z,99721.59
2022-09-26T14:19:15.802Z,99721.59
2022-09-26T14:21:49.408Z,99728.63
2022-09-26T14:24:32.208Z,99716.19
2022-09-26T14:27:05.209Z,99717.97
2022-09-26T14:29:39.140Z,99716.06
2022-09-26T14:32:09.923Z,99710.72
2022-09-26T14:34:45.647Z,99714.34
2022-09-26T14:37:21.615Z,99718.59
2022-09-26T14:40:11.191Z,99706.25
2022-09-26T14:42:43.762Z,99708.59
2022-09-26T14:45:16.577Z,99713.00
2022-09-26T14:47:50.521Z,99716.31
2022-09-26T14:50:34.448Z,99725.91
2022-09-26T14:53:34.096Z,99721.44
2022-09-26T14:56:06.296Z,99721.44
2022-09-26T14:58:50.118Z,99718.84
2022-09-26T15:01:28.630Z,99724.19
2022-09-26T15:04:02.149Z,99720.66
2022-09-26T15:06:30.763Z,99718.13
2022-09-26T15:09:10.153Z,99720.66
2022-09-26T15:11:49.535Z,99711.06
2022-09-26T15:14:39.938Z,99714.81
2022-09-26T15:17:14.954Z,99712.22
2022-09-26T15:19:55.531Z,99717.56
2022-09-26T15:22:27.570Z,99716.72
2022-09-26T15:24:55.867Z,99710.53
2022-09-26T15:27:29.255Z,99718.59
2022-09-26T15:30:14.317Z,99728.41
2022-09-26T15:32:41.000Z,99725.09
2022-09-26T15:35:12.747Z,99727.03
2022-09-26T15:37:39.454Z,99725.31
2022-09-26T15:40:26.093Z,99730.00
2022-09-26T15:43:21.880Z,99728.41
2022-09-26T15:45:49.213Z,99720.50
2022-09-26T15:48:32.690Z,99730.38
2022-09-26T15:51:16.602Z,99724.31
2022-09-26T15:53:59.615Z,99717.38
2022-09-26T15:56:35.417Z,99717.50
2022-09-26T15:59:24.946Z,99716.72
2022-09-26T16:01:52.678Z,99723.22
2022-09-26T16:04:27.501Z,99711.91
2022-09-26T16:07:04.704Z,99718.41
2022-09-26T16:09:40.281Z,99726.59
2022-09-26T16:12:16.053Z,99729.34
2022-09-26T16:14:50.699Z,99733.06
2022-09-26T16:17:35.886Z,99725.34
2022-09-26T16:20:24.210Z,99730.88
2022-09-26T16:22:53.088Z,99723.97
2022-09-26T16:25:19.690Z,99725.00
2022-09-26T16:27:51.096Z,99726.06
2022-09-26T16:30:23.819Z,99731.53
2022-09-26T16:32:54.634Z,99732.50
2022-09-26T16:35:30.447Z,99738.78
2022-09-26T16:37:57.591Z,99743.25
2022-09-26T16:40:24.328Z,99745.25
2022-09-26T16:42:51.160Z,99753.34
2022-09-26T16:45:17.877Z,99745.53
2022-09-26T16:47:45.586Z,99743.06
2022-09-26T16:50:26.569Z,99753.84
2022-09-26T16:52:54.587Z,99754.88
2022-09-26T16:55:21.879Z,99755.06
2022-09-26T16:57:56.878Z,99754.22
2022-09-26T17:00:48.747Z,99749.94
2022-09-26T17:03:30.633Z,99760.75
2022-09-26T17:05:58.981Z,99761.91
2022-09-26T17:08:27.544Z,99769.13
2022-09-26T17:10:57.142Z,99767.53
2022-09-26T17:13:26.462Z,99768.56
2022-09-26T17:15:57.509Z,99769.53
2022-09-26T17:18:29.545Z,99777.69
2022-09-26T17:20:57.120Z,99768.94
2022-09-26T17:23:41.121Z,99771.03
2022-09-26T17:26:16.175Z,99781.88
2022-09-26T17:28:42.941Z,99781.22
2022-09-26T17:31:19.853Z,99774.38
2022-09-26T17:33:49.808Z,99778.06
2022-09-26T17:36:28.371Z,99787.94
2022-09-26T17:38:57.753Z,99786.41
2022-09-26T17:41:25.316Z,99789.19
2022-09-26T17:43:58.668Z,99785.75
2022-09-26T17:46:25.604Z,99791.16
2022-09-26T17:48:52.346Z,99784.97
2022-09-26T17:51:21.207Z,99797.59
2022-09-26T17:53:51.060Z,99787.25
2022-09-26T17:56:19.212Z,99792.84
2022-09-26T17:58:47.433Z,99796.53
2022-09-26T18:01:30.350Z,99798.53
2022-09-26T18:04:01.312Z,99798.69
2022-09-26T18:06:31.810Z,99799.81
2022-09-26T18:09:05.285Z,99797.34
2022-09-26T18:11:34.550Z,99801.88
2022-09-26T18:14:04.706Z,99801.13
2022-09-26T18:16:31.367Z,99805.59
2022-09-26T18:18:58.908Z,99803.88
2022-09-26T18:21:26.889Z,99797.69
2022-09-26T18:24:02.281Z,99795.03
2022-09-26T18:26:37.293Z,99798.72
2022-09-26T18:29:07.768Z,99801.38
2022-09-26T18:31:38.544Z,99800.53
2022-09-26T18:34:12.163Z,99798.06
2022-09-26T18:36:38.835Z,99796.44
2022-09-26T18:39:05.447Z,99802.88
2022-09-26T18:41:32.879Z,99803.81
2022-09-26T18:44:02.347Z,99803.91
2022-09-26T18:46:29.906Z,99806.66
2022-09-26T18:48:58.917Z,99797.81
2022-09-26T18:51:28.850Z,99805.13
2022-09-26T18:53:55.476Z,99813.94
2022-09-26T18:56:40.884Z,99806.81
2022-09-26T18:59:10.156Z,99810.44
2022-09-26T19:01:40.146Z,99811.28
2022-09-26T19:04:17.732Z,99807.84
2022-09-26T19:06:47.120Z,99810.72
2022-09-26T19:09:20.260Z,99815.25
2022-09-26T19:11:47.599Z,99813.50
2022-09-26T19:14:18.684Z,99818.03
2022-09-26T19:16:47.183Z,99815.56
2022-09-26T19:19:14.794Z,99820.88
2022-09-26T19:21:50.371Z,99819.31
2022-09-26T19:24:34.431Z,99821.19
2022-09-26T19:27:06.494Z,99813.50
2022-09-26T19:29:59.856Z,99815.31
2022-09-26T19:32:51.153Z,99816.25
2022-09-26T19:35:25.831Z,99821.75
2022-09-26T19:37:53.082Z,99820.78
2022-09-26T19:40:21.643Z,99814.91
2022-09-26T19:42:48.546Z,99829.09
2022-09-26T19:45:16.295Z,99827.38
2022-09-26T19:47:46.207Z,99819.41
2022-09-26T19:50:20.811Z,99821.22
2022-09-26T19:52:48.710Z,99822.16
2022-09-26T19:55:21.762Z,99831.00
2022-09-26T19:57:48.346Z,99831.00
2022-09-26T20:00:15.672Z,99828.41
2022-09-26T20:02:42.564Z,99830.22
2022-09-26T20:05:24.132Z,99830.22
2022-09-26T20:07:51.494Z,99830.22
2022-09-26T20:10:21.234Z,99833.72
2022-09-26T20:12:51.278Z,99835.53
2022-09-26T20:15:21.653Z,99838.19
2022-09-26T20:17:49.388Z,99836.47
2022-09-26T20:20:25.399Z,99838.19
2022-09-26T20:22:56.566Z,99836.38
2022-09-26T20:25:27.440Z,99838.03
2022-09-26T20:27:55.286Z,99845.97
2022-09-26T20:30:41.286Z,99843.31
2022-09-26T20:33:09.818Z,99853.84
2022-09-26T20:35:41.726Z,99851.13
2022-09-26T20:38:33.164Z,99850.19
2022-09-26T20:41:16.071Z,99851.72
2022-09-26T20:43:48.222Z,99856.28
2022-09-26T20:46:15.304Z,99866.81
2022-09-26T20:48:45.542Z,99868.72
2022-09-26T20:51:27.435Z,99862.59
2022-09-26T20:53:54.170Z,99877.53
2022-09-26T20:56:21.407Z,99880.94
2022-09-26T20:58:48.549Z,99871.09
2022-09-26T21:01:17.179Z,99874.53
2022-09-26T21:03:53.044Z,99871.69
2022-09-26T21:06:22.186Z,99872.47
2022-09-26T21:08:49.186Z,99872.56
2022-09-26T21:11:18.753Z,99866.31
2022-09-26T21:13:45.659Z,99874.09
2022-09-26T21:16:14.213Z,99878.47
2022-09-26T21:18:44.066Z,99874.84
2022-09-26T21:21:30.433Z,99880.09
2022-09-26T21:23:59.282Z,99876.59
2022-09-26T21:26:28.338Z,99873.00
2022-09-26T21:28:56.350Z,99867.56
2022-09-26T21:31:29.429Z,99866.66
2022-09-26T21:33:58.854Z,99867.44
2022-09-26T21:36:33.960Z,99871.81
2022-09-26T21:39:01.934Z,99871.81
2022-09-26T21:41:29.415Z,99874.50
2022-09-26T21:44:04.181Z,99874.63
2022-09-26T21:46:30.946Z,99869.53
2022-09-26T21:48:57.775Z,99866.19
2022-09-26T21:51:27.865Z,99867.25
2022-09-26T21:54:13.458Z,99867.25
2022-09-26T21:56:50.125Z,99867.31
2022-09-26T21:59:19.981Z,99865.63
2022-09-26T22:01:46.716Z,99861.31
2022-09-26T22:04:14.558Z,99862.19
2022-09-26T22:06:42.099Z,99872.22
2022-09-26T22:09:09.449Z,99865.16
2022-09-26T22:11:36.970Z,99865.25
2022-09-26T22:14:04.384Z,99866.28
2022-09-26T22:16:31.254Z,99866.28
2022-09-26T22:18:58.339Z,99863.72
2022-09-26T22:21:24.989Z,99871.75
2022-09-26T22:23:52.058Z,99867.50
2022-09-26T22:26:19.762Z,99868.41
2022-09-26T22:28:46.403Z,99870.22
2022-09-26T22:31:13.190Z,99866.81
2022-09-26T22:33:39.975Z,99865.34
2022-09-26T22:36:06.850Z,99877.66
2022-09-26T22:38:35.210Z,99873.31
2022-09-26T22:41:04.736Z,99877.75
2022-09-26T22:43:32.786Z,99864.38
2022-09-26T22:46:05.442Z,99877.75
2022-09-26T22:48:34.567Z,99864.56
2022-09-26T22:51:01.574Z,99870.91
2022-09-26T22:53:31.209Z,99866.69
2022-09-26T22:55:58.337Z,99875.69
2022-09-26T22:58:26.097Z,99874.81
2022-09-26T23:00:52.817Z,99866.25
2022-09-26T23:03:19.510Z,99871.66
2022-09-26T23:05:51.266Z,99862.06
2022-09-26T23:08:17.981Z,99866.56
2022-09-26T23:10:49.127Z,99868.38
2022-09-26T23:13:16.514Z,99872.88
2022-09-26T23:15:43.640Z,99867.69
2022-09-26T23:18:11.397Z,99873.16
2022-09-26T23:20:42.395Z,99876.75
2022-09-26T23:23:10.668Z,99879.41
2022-09-26T23:25:44.521Z,99875.81
2022-09-26T23:28:11.119Z,99874.00
2022-09-26T23:30:38.478Z,99871.19
2022-09-26T23:33:05.145Z,99873.00
2022-09-26T23:35:31.747Z,99869.47
2022-09-26T23:37:58.675Z,99873.94
2022-09-26T23:40:25.774Z,99875.81
2022-09-26T23:42:52.410Z,99889.06
2022-09-26T23:45:19.018Z,99877.75
2022-09-26T23:47:46.036Z,99877.84
2022-09-26T23:50:12.666Z,99883.22
2022-09-26T23:52:39.347Z,99883.31
2022-09-26T23:55:06.352Z,99879.88
2022-09-26T23:57:32.954Z,99885.34
2022-09-26T23:59:59.566Z,99878.50
